Terminal Aerodrome Forecast
Issued by NWS Sterling, VA

Current Version | Previous Version | Text Only | Print | Product List | Glossary Off
Versions: 1 2 3 4 5 6 7 8 9 10 11 12 13 14 15 16 17 18 19 20 21 22 23 24 25 26

000
FTUS41 KLWX 171100
TAFDCA
TAF
KDCA 171136Z 1712/1812 23007KT P6SM SCT040
     FM171500 29012G22KT P6SM SCT040
     FM172300 29008KT P6SM FEW100
     FM180700 30010KT P6SM SCT030 SCT100=

USA.gov is the U.S. government's official web portal to all federal, state and local government web resources and services.